sensor_id;sensor_type;location;lat;lon;timestamp;temperature;humidity
22450;DHT22;11392;57.390;-2.468;2023-07-20T00:02:24;12.90;99.90
22450;DHT22;11392;57.390;-2.468;2023-07-20T00:04:51;12.90;99.90
22450;DHT22;11392;57.390;-2.468;2023-07-20T00:07:18;12.90;99.90
22450;DHT22;11392;57.390;-2.468;2023-07-20T00:09:45;12.90;99.90
22450;DHT22;11392;57.390;-2.468;2023-07-20T00:12:13;12.90;99.90
22450;DHT22;11392;57.390;-2.468;2023-07-20T00:14:40;12.90;99.90
22450;DHT22;11392;57.390;-2.468;2023-07-20T00:17:07;12.90;99.90
22450;DHT22;11392;57.390;-2.468;2023-07-20T00:19:34;12.90;99.90
22450;DHT22;11392;57.390;-2.468;2023-07-20T00:22:01;12.90;99.90
22450;DHT22;11392;57.390;-2.468;2023-07-20T00:24:31;12.90;99.90
22450;DHT22;11392;57.390;-2.468;2023-07-20T00:26:59;12.80;99.90
22450;DHT22;11392;57.390;-2.468;2023-07-20T00:29:27;12.80;99.90
22450;DHT22;11392;57.390;-2.468;2023-07-20T00:31:55;12.80;99.90
22450;DHT22;11392;57.390;-2.468;2023-07-20T00:34:23;12.80;99.90
22450;DHT22;11392;57.390;-2.468;2023-07-20T00:36:50;12.80;99.90
22450;DHT22;11392;57.390;-2.468;2023-07-20T00:39:17;12.80;99.90
22450;DHT22;11392;57.390;-2.468;2023-07-20T00:41:44;12.70;99.90
22450;DHT22;11392;57.390;-2.468;2023-07-20T00:44:14;12.80;99.90
22450;DHT22;11392;57.390;-2.468;2023-07-20T00:46:41;12.80;99.90
22450;DHT22;11392;57.390;-2.468;2023-07-20T00:49:08;12.80;99.90
22450;DHT22;11392;57.390;-2.468;2023-07-20T00:51:35;12.70;99.90
22450;DHT22;11392;57.390;-2.468;2023-07-20T00:54:03;12.70;99.90
22450;DHT22;11392;57.390;-2.468;2023-07-20T00:56:30;12.70;99.90
22450;DHT22;11392;57.390;-2.468;2023-07-20T00:58:57;12.70;99.90
22450;DHT22;11392;57.390;-2.468;2023-07-20T01:01:24;12.70;99.90
22450;DHT22;11392;57.390;-2.468;2023-07-20T01:03:51;12.60;99.90
22450;DHT22;11392;57.390;-2.468;2023-07-20T01:06:34;12.70;99.90
22450;DHT22;11392;57.390;-2.468;2023-07-20T01:09:11;12.70;99.90
22450;DHT22;11392;57.390;-2.468;2023-07-20T01:12:05;12.70;99.90
22450;DHT22;11392;57.390;-2.468;2023-07-20T01:14:34;12.60;99.90
22450;DHT22;11392;57.390;-2.468;2023-07-20T01:17:02;12.60;99.90
22450;DHT22;11392;57.390;-2.468;2023-07-20T01:19:29;12.60;99.90
22450;DHT22;11392;57.390;-2.468;2023-07-20T01:25:58;12.60;99.90
22450;DHT22;11392;57.390;-2.468;2023-07-20T01:31:38;12.50;99.90
22450;DHT22;11392;57.390;-2.468;2023-07-20T01:34:07;12.50;99.90
22450;DHT22;11392;57.390;-2.468;2023-07-20T01:36:37;12.50;99.90
22450;DHT22;11392;57.390;-2.468;2023-07-20T01:39:06;12.50;99.90
22450;DHT22;11392;57.390;-2.468;2023-07-20T01:41:34;12.50;99.90
22450;DHT22;11392;57.390;-2.468;2023-07-20T01:44:03;12.50;99.90
22450;DHT22;11392;57.390;-2.468;2023-07-20T01:46:31;12.40;99.90
22450;DHT22;11392;57.390;-2.468;2023-07-20T01:48:58;12.40;99.90
22450;DHT22;11392;57.390;-2.468;2023-07-20T01:51:26;12.40;99.90
22450;DHT22;11392;57.390;-2.468;2023-07-20T01:53:53;12.50;99.90
22450;DHT22;11392;57.390;-2.468;2023-07-20T01:56:20;12.40;99.90
22450;DHT22;11392;57.390;-2.468;2023-07-20T01:58:48;12.40;99.90
22450;DHT22;11392;57.390;-2.468;2023-07-20T02:01:15;12.40;99.90
22450;DHT22;11392;57.390;-2.468;2023-07-20T02:03:42;12.40;99.90
22450;DHT22;11392;57.390;-2.468;2023-07-20T02:06:09;12.40;99.90
22450;DHT22;11392;57.390;-2.468;2023-07-20T02:08:36;12.30;99.90
22450;DHT22;11392;57.390;-2.468;2023-07-20T02:11:03;12.40;99.90
22450;DHT22;11392;57.390;-2.468;2023-07-20T02:13:31;12.40;99.90
22450;DHT22;11392;57.390;-2.468;2023-07-20T02:15:58;12.40;99.90
22450;DHT22;11392;57.390;-2.468;2023-07-20T02:18:25;12.30;99.90
22450;DHT22;11392;57.390;-2.468;2023-07-20T02:20:53;12.40;99.90
22450;DHT22;11392;57.390;-2.468;2023-07-20T02:23:21;12.30;99.90
22450;DHT22;11392;57.390;-2.468;2023-07-20T02:25:47;12.30;99.90
22450;DHT22;11392;57.390;-2.468;2023-07-20T02:28:15;12.30;99.90
22450;DHT22;11392;57.390;-2.468;2023-07-20T02:30:42;12.30;99.90
22450;DHT22;11392;57.390;-2.468;2023-07-20T02:33:09;12.30;99.90
22450;DHT22;11392;57.390;-2.468;2023-07-20T02:35:37;12.30;99.90
22450;DHT22;11392;57.390;-2.468;2023-07-20T02:38:04;12.20;99.90
22450;DHT22;11392;57.390;-2.468;2023-07-20T02:40:31;12.10;99.90
22450;DHT22;11392;57.390;-2.468;2023-07-20T02:42:57;12.00;99.90
22450;DHT22;11392;57.390;-2.468;2023-07-20T02:45:24;11.80;99.90
22450;DHT22;11392;57.390;-2.468;2023-07-20T02:47:51;11.70;99.90
22450;DHT22;11392;57.390;-2.468;2023-07-20T02:50:19;11.70;99.90
22450;DHT22;11392;57.390;-2.468;2023-07-20T02:52:46;11.70;99.90
22450;DHT22;11392;57.390;-2.468;2023-07-20T02:55:13;11.80;99.90
22450;DHT22;11392;57.390;-2.468;2023-07-20T02:57:40;11.70;99.90
22450;DHT22;11392;57.390;-2.468;2023-07-20T03:00:07;11.70;99.90
22450;DHT22;11392;57.390;-2.468;2023-07-20T03:02:34;11.80;99.90
22450;DHT22;11392;57.390;-2.468;2023-07-20T03:05:02;11.70;99.90
22450;DHT22;11392;57.390;-2.468;2023-07-20T03:07:32;11.60;99.90
22450;DHT22;11392;57.390;-2.468;2023-07-20T03:09:59;11.60;99.90
22450;DHT22;11392;57.390;-2.468;2023-07-20T03:12:26;11.50;99.90
22450;DHT22;11392;57.390;-2.468;2023-07-20T03:14:53;11.50;99.90
22450;DHT22;11392;57.390;-2.468;2023-07-20T03:17:20;11.50;99.90
22450;DHT22;11392;57.390;-2.468;2023-07-20T03:19:47;11.50;99.90
22450;DHT22;11392;57.390;-2.468;2023-07-20T03:22:14;11.50;99.90
22450;DHT22;11392;57.390;-2.468;2023-07-20T03:24:41;11.50;99.90
22450;DHT22;11392;57.390;-2.468;2023-07-20T03:27:08;11.60;99.90
22450;DHT22;11392;57.390;-2.468;2023-07-20T03:29:35;11.60;99.90
22450;DHT22;11392;57.390;-2.468;2023-07-20T03:32:02;11.70;99.90
22450;DHT22;11392;57.390;-2.468;2023-07-20T03:34:29;11.70;99.90
22450;DHT22;11392;57.390;-2.468;2023-07-20T03:36:56;11.70;99.90
22450;DHT22;11392;57.390;-2.468;2023-07-20T03:39:23;11.70;99.90
22450;DHT22;11392;57.390;-2.468;2023-07-20T03:41:50;11.60;99.90
22450;DHT22;11392;57.390;-2.468;2023-07-20T03:44:17;11.60;99.90
22450;DHT22;11392;57.390;-2.468;2023-07-20T03:46:44;11.60;99.90
22450;DHT22;11392;57.390;-2.468;2023-07-20T03:49:11;11.60;99.90
22450;DHT22;11392;57.390;-2.468;2023-07-20T03:51:38;11.60;99.90
22450;DHT22;11392;57.390;-2.468;2023-07-20T03:54:05;11.60;99.90
22450;DHT22;11392;57.390;-2.468;2023-07-20T03:56:32;11.50;99.90
22450;DHT22;11392;57.390;-2.468;2023-07-20T03:59:02;11.50;99.90
22450;DHT22;11392;57.390;-2.468;2023-07-20T04:01:29;11.50;99.90
22450;DHT22;11392;57.390;-2.468;2023-07-20T04:03:56;11.60;99.90
22450;DHT22;11392;57.390;-2.468;2023-07-20T04:06:24;11.80;99.90
22450;DHT22;11392;57.390;-2.468;2023-07-20T04:08:51;11.80;99.90
22450;DHT22;11392;57.390;-2.468;2023-07-20T04:11:18;11.80;99.90
22450;DHT22;11392;57.390;-2.468;2023-07-20T04:13:46;11.80;99.90
22450;DHT22;11392;57.390;-2.468;2023-07-20T04:16:13;11.80;99.90
22450;DHT22;11392;57.390;-2.468;2023-07-20T04:18:40;11.80;99.90
22450;DHT22;11392;57.390;-2.468;2023-07-20T04:21:10;11.80;99.90
22450;DHT22;11392;57.390;-2.468;2023-07-20T04:23:37;11.80;99.90
22450;DHT22;11392;57.390;-2.468;2023-07-20T04:26:04;11.80;99.90
22450;DHT22;11392;57.390;-2.468;2023-07-20T04:28:33;11.70;99.90
22450;DHT22;11392;57.390;-2.468;2023-07-20T04:31:13;11.70;99.90
22450;DHT22;11392;57.390;-2.468;2023-07-20T04:33:41;11.70;99.90
22450;DHT22;11392;57.390;-2.468;2023-07-20T04:36:08;11.70;99.90
22450;DHT22;11392;57.390;-2.468;2023-07-20T04:38:36;11.70;99.90
22450;DHT22;11392;57.390;-2.468;2023-07-20T04:41:03;11.70;99.90
22450;DHT22;11392;57.390;-2.468;2023-07-20T04:43:30;11.70;99.90
22450;DHT22;11392;57.390;-2.468;2023-07-20T04:45:57;11.70;99.90
22450;DHT22;11392;57.390;-2.468;2023-07-20T04:48:25;11.70;99.90
22450;DHT22;11392;57.390;-2.468;2023-07-20T04:50:52;11.70;99.90
22450;DHT22;11392;57.390;-2.468;2023-07-20T04:53:19;11.70;99.90
22450;DHT22;11392;57.390;-2.468;2023-07-20T04:55:50;11.70;99.90
22450;DHT22;11392;57.390;-2.468;2023-07-20T04:58:20;11.70;99.90
22450;DHT22;11392;57.390;-2.468;2023-07-20T05:00:48;11.70;99.90
22450;DHT22;11392;57.390;-2.468;2023-07-20T05:03:16;11.70;99.90
22450;DHT22;11392;57.390;-2.468;2023-07-20T05:05:43;11.70;99.90
22450;DHT22;11392;57.390;-2.468;2023-07-20T05:08:12;11.70;99.90
22450;DHT22;11392;57.390;-2.468;2023-07-20T05:10:39;11.70;99.90
22450;DHT22;11392;57.390;-2.468;2023-07-20T05:13:06;11.70;99.90
22450;DHT22;11392;57.390;-2.468;2023-07-20T05:15:33;11.70;99.90
22450;DHT22;11392;57.390;-2.468;2023-07-20T05:18:03;11.80;99.90
22450;DHT22;11392;57.390;-2.468;2023-07-20T05:20:30;11.90;99.90
22450;DHT22;11392;57.390;-2.468;2023-07-20T05:22:59;11.90;99.90
22450;DHT22;11392;57.390;-2.468;2023-07-20T05:25:26;11.80;99.90
22450;DHT22;11392;57.390;-2.468;2023-07-20T05:27:56;11.80;99.90
22450;DHT22;11392;57.390;-2.468;2023-07-20T05:30:23;11.80;99.90
22450;DHT22;11392;57.390;-2.468;2023-07-20T05:32:50;11.80;99.90
22450;DHT22;11392;57.390;-2.468;2023-07-20T05:35:19;11.80;99.90
22450;DHT22;11392;57.390;-2.468;2023-07-20T05:37:47;11.80;99.90
22450;DHT22;11392;57.390;-2.468;2023-07-20T05:40:15;11.80;99.90
22450;DHT22;11392;57.390;-2.468;2023-07-20T05:42:46;11.80;99.90
22450;DHT22;11392;57.390;-2.468;2023-07-20T05:45:15;11.80;99.90
22450;DHT22;11392;57.390;-2.468;2023-07-20T05:47:42;11.80;99.90
22450;DHT22;11392;57.390;-2.468;2023-07-20T05:50:10;11.90;99.90
22450;DHT22;11392;57.390;-2.468;2023-07-20T05:52:37;11.80;99.90
22450;DHT22;11392;57.390;-2.468;2023-07-20T05:55:06;11.80;99.90
22450;DHT22;11392;57.390;-2.468;2023-07-20T05:57:33;11.90;99.90
22450;DHT22;11392;57.390;-2.468;2023-07-20T06:00:02;12.00;99.90
22450;DHT22;11392;57.390;-2.468;2023-07-20T06:02:30;12.10;99.90
22450;DHT22;11392;57.390;-2.468;2023-07-20T06:04:57;12.20;99.90
22450;DHT22;11392;57.390;-2.468;2023-07-20T06:07:24;12.20;99.90
22450;DHT22;11392;57.390;-2.468;2023-07-20T06:09:51;12.30;99.90
22450;DHT22;11392;57.390;-2.468;2023-07-20T06:12:18;12.40;99.90
22450;DHT22;11392;57.390;-2.468;2023-07-20T06:14:45;12.50;99.90
22450;DHT22;11392;57.390;-2.468;2023-07-20T06:17:12;12.50;99.90
22450;DHT22;11392;57.390;-2.468;2023-07-20T06:19:39;12.50;99.90
22450;DHT22;11392;57.390;-2.468;2023-07-20T06:22:06;12.50;99.90
22450;DHT22;11392;57.390;-2.468;2023-07-20T06:24:33;12.50;99.90
22450;DHT22;11392;57.390;-2.468;2023-07-20T06:26:59;12.50;99.90
22450;DHT22;11392;57.390;-2.468;2023-07-20T06:29:26;12.40;99.90
22450;DHT22;11392;57.390;-2.468;2023-07-20T06:31:53;12.40;99.90
22450;DHT22;11392;57.390;-2.468;2023-07-20T06:34:20;12.40;99.90
22450;DHT22;11392;57.390;-2.468;2023-07-20T06:36:49;12.40;99.90
22450;DHT22;11392;57.390;-2.468;2023-07-20T06:39:16;12.30;99.90
22450;DHT22;11392;57.390;-2.468;2023-07-20T06:41:46;12.20;99.90
22450;DHT22;11392;57.390;-2.468;2023-07-20T06:44:13;12.10;99.90
22450;DHT22;11392;57.390;-2.468;2023-07-20T06:46:40;12.00;99.90
22450;DHT22;11392;57.390;-2.468;2023-07-20T06:49:07;12.00;99.90
22450;DHT22;11392;57.390;-2.468;2023-07-20T06:51:37;12.00;99.90
22450;DHT22;11392;57.390;-2.468;2023-07-20T06:54:04;12.00;99.90
22450;DHT22;11392;57.390;-2.468;2023-07-20T06:56:31;12.00;99.90
22450;DHT22;11392;57.390;-2.468;2023-07-20T06:58:59;12.10;99.90
22450;DHT22;11392;57.390;-2.468;2023-07-20T07:01:26;12.10;99.90
22450;DHT22;11392;57.390;-2.468;2023-07-20T07:03:54;12.20;99.90
22450;DHT22;11392;57.390;-2.468;2023-07-20T07:06:22;12.20;99.90
22450;DHT22;11392;57.390;-2.468;2023-07-20T07:08:50;12.20;99.90
22450;DHT22;11392;57.390;-2.468;2023-07-20T07:11:17;12.20;99.90
22450;DHT22;11392;57.390;-2.468;2023-07-20T07:13:44;12.20;99.90
22450;DHT22;11392;57.390;-2.468;2023-07-20T07:16:13;12.20;99.90
22450;DHT22;11392;57.390;-2.468;2023-07-20T07:18:46;12.30;99.90
22450;DHT22;11392;57.390;-2.468;2023-07-20T07:21:13;12.40;99.90
22450;DHT22;11392;57.390;-2.468;2023-07-20T07:23:40;12.50;99.90
22450;DHT22;11392;57.390;-2.468;2023-07-20T07:26:07;12.50;99.90
22450;DHT22;11392;57.390;-2.468;2023-07-20T07:28:35;12.50;99.90
22450;DHT22;11392;57.390;-2.468;2023-07-20T07:31:05;12.60;99.90
22450;DHT22;11392;57.390;-2.468;2023-07-20T07:33:33;12.60;99.90
22450;DHT22;11392;57.390;-2.468;2023-07-20T07:36:01;12.70;99.90
22450;DHT22;11392;57.390;-2.468;2023-07-20T07:38:28;12.70;99.90
22450;DHT22;11392;57.390;-2.468;2023-07-20T07:41:16;12.60;99.90
22450;DHT22;11392;57.390;-2.468;2023-07-20T07:43:43;12.70;99.90
22450;DHT22;11392;57.390;-2.468;2023-07-20T07:46:10;12.70;99.90
22450;DHT22;11392;57.390;-2.468;2023-07-20T07:48:37;12.90;99.90
22450;DHT22;11392;57.390;-2.468;2023-07-20T07:51:04;12.80;99.90
22450;DHT22;11392;57.390;-2.468;2023-07-20T07:53:31;12.80;99.90
22450;DHT22;11392;57.390;-2.468;2023-07-20T07:55:59;12.70;99.90
22450;DHT22;11392;57.390;-2.468;2023-07-20T07:58:27;12.70;99.90
22450;DHT22;11392;57.390;-2.468;2023-07-20T08:00:54;12.60;99.90
22450;DHT22;11392;57.390;-2.468;2023-07-20T08:03:21;12.50;99.90
22450;DHT22;11392;57.390;-2.468;2023-07-20T08:05:50;12.50;99.90
22450;DHT22;11392;57.390;-2.468;2023-07-20T08:08:17;12.60;99.90
22450;DHT22;11392;57.390;-2.468;2023-07-20T08:10:45;12.60;99.90
22450;DHT22;11392;57.390;-2.468;2023-07-20T08:13:12;12.60;99.90
22450;DHT22;11392;57.390;-2.468;2023-07-20T08:15:39;12.70;99.90
22450;DHT22;11392;57.390;-2.468;2023-07-20T08:18:06;12.70;99.90
22450;DHT22;11392;57.390;-2.468;2023-07-20T08:20:35;12.70;99.90
22450;DHT22;11392;57.390;-2.468;2023-07-20T08:23:02;12.80;99.90
22450;DHT22;11392;57.390;-2.468;2023-07-20T08:25:29;12.80;99.90
22450;DHT22;11392;57.390;-2.468;2023-07-20T08:27:56;12.90;99.90
22450;DHT22;11392;57.390;-2.468;2023-07-20T08:30:23;12.90;99.90
22450;DHT22;11392;57.390;-2.468;2023-07-20T08:32:50;12.80;99.90
22450;DHT22;11392;57.390;-2.468;2023-07-20T08:35:17;12.80;99.90
22450;DHT22;11392;57.390;-2.468;2023-07-20T08:37:48;12.90;99.90
22450;DHT22;11392;57.390;-2.468;2023-07-20T08:40:15;12.90;99.90
22450;DHT22;11392;57.390;-2.468;2023-07-20T08:42:42;13.00;99.90
22450;DHT22;11392;57.390;-2.468;2023-07-20T08:45:11;13.20;99.90
22450;DHT22;11392;57.390;-2.468;2023-07-20T08:47:42;13.40;99.90
22450;DHT22;11392;57.390;-2.468;2023-07-20T08:50:11;13.50;99.90
22450;DHT22;11392;57.390;-2.468;2023-07-20T08:52:39;13.60;99.90
22450;DHT22;11392;57.390;-2.468;2023-07-20T08:55:06;13.90;99.90
22450;DHT22;11392;57.390;-2.468;2023-07-20T08:57:34;14.20;99.90
22450;DHT22;11392;57.390;-2.468;2023-07-20T09:00:03;14.40;99.90
22450;DHT22;11392;57.390;-2.468;2023-07-20T09:02:40;14.50;99.90
22450;DHT22;11392;57.390;-2.468;2023-07-20T09:05:09;14.60;99.90
22450;DHT22;11392;57.390;-2.468;2023-07-20T09:07:41;14.50;99.90
22450;DHT22;11392;57.390;-2.468;2023-07-20T09:10:08;14.60;99.90
22450;DHT22;11392;57.390;-2.468;2023-07-20T09:12:38;14.60;99.90
22450;DHT22;11392;57.390;-2.468;2023-07-20T09:15:07;14.70;99.90
22450;DHT22;11392;57.390;-2.468;2023-07-20T09:17:34;14.80;99.90
22450;DHT22;11392;57.390;-2.468;2023-07-20T09:20:07;14.90;99.90
22450;DHT22;11392;57.390;-2.468;2023-07-20T09:22:38;14.80;99.90
22450;DHT22;11392;57.390;-2.468;2023-07-20T09:25:17;14.70;99.90
22450;DHT22;11392;57.390;-2.468;2023-07-20T09:27:46;14.60;99.90
22450;DHT22;11392;57.390;-2.468;2023-07-20T09:30:17;14.70;99.90
22450;DHT22;11392;57.390;-2.468;2023-07-20T09:32:48;14.50;99.90
22450;DHT22;11392;57.390;-2.468;2023-07-20T09:35:21;14.30;99.90
22450;DHT22;11392;57.390;-2.468;2023-07-20T09:37:57;14.00;99.90
22450;DHT22;11392;57.390;-2.468;2023-07-20T09:40:28;13.80;99.90
22450;DHT22;11392;57.390;-2.468;2023-07-20T09:42:59;13.70;99.90
22450;DHT22;11392;57.390;-2.468;2023-07-20T09:45:40;13.70;99.90
22450;DHT22;11392;57.390;-2.468;2023-07-20T09:48:11;13.80;99.90
22450;DHT22;11392;57.390;-2.468;2023-07-20T09:50:52;13.80;99.90
22450;DHT22;11392;57.390;-2.468;2023-07-20T09:53:20;13.60;99.90
22450;DHT22;11392;57.390;-2.468;2023-07-20T09:55:48;13.70;99.90
22450;DHT22;11392;57.390;-2.468;2023-07-20T09:58:16;13.70;99.90
22450;DHT22;11392;57.390;-2.468;2023-07-20T10:00:44;13.70;99.90
22450;DHT22;11392;57.390;-2.468;2023-07-20T10:03:22;13.90;99.90
22450;DHT22;11392;57.390;-2.468;2023-07-20T10:06:05;14.10;99.90
22450;DHT22;11392;57.390;-2.468;2023-07-20T10:08:39;14.20;99.90
22450;DHT22;11392;57.390;-2.468;2023-07-20T10:11:10;14.60;99.90
22450;DHT22;11392;57.390;-2.468;2023-07-20T10:13:41;14.80;99.90
22450;DHT22;11392;57.390;-2.468;2023-07-20T10:16:19;15.00;99.90
22450;DHT22;11392;57.390;-2.468;2023-07-20T10:21:40;15.20;99.90
22450;DHT22;11392;57.390;-2.468;2023-07-20T10:24:10;15.40;99.90
22450;DHT22;11392;57.390;-2.468;2023-07-20T10:26:38;15.40;99.90
22450;DHT22;11392;57.390;-2.468;2023-07-20T10:29:08;15.50;99.90
22450;DHT22;11392;57.390;-2.468;2023-07-20T10:31:37;15.60;99.90
22450;DHT22;11392;57.390;-2.468;2023-07-20T10:34:04;15.60;99.90
22450;DHT22;11392;57.390;-2.468;2023-07-20T10:36:31;15.40;99.90
22450;DHT22;11392;57.390;-2.468;2023-07-20T10:38:58;15.50;99.90
22450;DHT22;11392;57.390;-2.468;2023-07-20T10:44:04;15.50;99.90
22450;DHT22;11392;57.390;-2.468;2023-07-20T10:46:42;15.30;99.90
22450;DHT22;11392;57.390;-2.468;2023-07-20T10:49:14;15.20;99.90
22450;DHT22;11392;57.390;-2.468;2023-07-20T10:51:56;15.00;99.90
22450;DHT22;11392;57.390;-2.468;2023-07-20T10:57:14;14.90;99.90
22450;DHT22;11392;57.390;-2.468;2023-07-20T10:59:42;14.70;99.90
22450;DHT22;11392;57.390;-2.468;2023-07-20T11:02:10;14.60;99.90
22450;DHT22;11392;57.390;-2.468;2023-07-20T11:07:05;14.60;99.90
22450;DHT22;11392;57.390;-2.468;2023-07-20T11:09:37;14.70;99.90
22450;DHT22;11392;57.390;-2.468;2023-07-20T11:12:13;14.70;99.90
22450;DHT22;11392;57.390;-2.468;2023-07-20T11:14:53;14.60;99.90
22450;DHT22;11392;57.390;-2.468;2023-07-20T11:17:31;14.50;99.90
22450;DHT22;11392;57.390;-2.468;2023-07-20T11:20:00;14.40;99.90
22450;DHT22;11392;57.390;-2.468;2023-07-20T11:22:33;14.20;99.90
22450;DHT22;11392;57.390;-2.468;2023-07-20T11:25:01;14.20;99.90
22450;DHT22;11392;57.390;-2.468;2023-07-20T11:27:28;14.30;99.90
22450;DHT22;11392;57.390;-2.468;2023-07-20T11:29:56;14.30;99.90
22450;DHT22;11392;57.390;-2.468;2023-07-20T11:32:23;14.40;99.90
22450;DHT22;11392;57.390;-2.468;2023-07-20T11:34:51;14.50;99.90
22450;DHT22;11392;57.390;-2.468;2023-07-20T11:37:18;14.70;99.90
22450;DHT22;11392;57.390;-2.468;2023-07-20T11:39:46;14.70;99.90
22450;DHT22;11392;57.390;-2.468;2023-07-20T11:42:14;14.80;99.90
22450;DHT22;11392;57.390;-2.468;2023-07-20T11:45:05;14.90;99.90
22450;DHT22;11392;57.390;-2.468;2023-07-20T11:47:33;15.00;99.90
22450;DHT22;11392;57.390;-2.468;2023-07-20T11:50:04;15.10;99.90
22450;DHT22;11392;57.390;-2.468;2023-07-20T11:52:31;15.00;99.90
22450;DHT22;11392;57.390;-2.468;2023-07-20T11:54:58;14.90;99.90
22450;DHT22;11392;57.390;-2.468;2023-07-20T11:57:26;15.00;99.90
22450;DHT22;11392;57.390;-2.468;2023-07-20T11:59:56;15.00;99.90
22450;DHT22;11392;57.390;-2.468;2023-07-20T12:02:26;14.90;99.90
22450;DHT22;11392;57.390;-2.468;2023-07-20T12:04:57;15.10;99.90
22450;DHT22;11392;57.390;-2.468;2023-07-20T12:07:28;15.20;99.90
22450;DHT22;11392;57.390;-2.468;2023-07-20T12:10:09;15.40;99.90
22450;DHT22;11392;57.390;-2.468;2023-07-20T12:12:40;15.60;99.90
22450;DHT22;11392;57.390;-2.468;2023-07-20T12:15:19;15.50;99.90
22450;DHT22;11392;57.390;-2.468;2023-07-20T12:17:49;15.50;99.90
22450;DHT22;11392;57.390;-2.468;2023-07-20T12:20:36;15.60;99.90
22450;DHT22;11392;57.390;-2.468;2023-07-20T12:23:09;15.60;99.90
22450;DHT22;11392;57.390;-2.468;2023-07-20T12:28:12;15.40;99.90
22450;DHT22;11392;57.390;-2.468;2023-07-20T12:30:42;15.30;99.90
22450;DHT22;11392;57.390;-2.468;2023-07-20T12:33:09;15.20;99.90
22450;DHT22;11392;57.390;-2.468;2023-07-20T12:35:36;15.30;99.90
22450;DHT22;11392;57.390;-2.468;2023-07-20T12:38:03;15.20;99.90
22450;DHT22;11392;57.390;-2.468;2023-07-20T12:40:31;15.30;99.90
22450;DHT22;11392;57.390;-2.468;2023-07-20T12:42:59;15.40;99.90
22450;DHT22;11392;57.390;-2.468;2023-07-20T12:45:26;15.50;99.90
22450;DHT22;11392;57.390;-2.468;2023-07-20T12:47:53;15.50;99.90
22450;DHT22;11392;57.390;-2.468;2023-07-20T12:50:21;15.30;99.90
22450;DHT22;11392;57.390;-2.468;2023-07-20T12:52:48;15.10;99.90
22450;DHT22;11392;57.390;-2.468;2023-07-20T12:55:15;14.90;99.90
22450;DHT22;11392;57.390;-2.468;2023-07-20T12:57:42;14.90;99.90
22450;DHT22;11392;57.390;-2.468;2023-07-20T13:00:10;15.00;99.90
22450;DHT22;11392;57.390;-2.468;2023-07-20T13:02:38;15.20;99.90
22450;DHT22;11392;57.390;-2.468;2023-07-20T13:05:06;15.20;99.90
22450;DHT22;11392;57.390;-2.468;2023-07-20T13:07:37;15.70;99.90
22450;DHT22;11392;57.390;-2.468;2023-07-20T13:10:08;16.20;99.90
22450;DHT22;11392;57.390;-2.468;2023-07-20T13:12:37;16.50;99.90
22450;DHT22;11392;57.390;-2.468;2023-07-20T13:15:06;16.70;99.90
22450;DHT22;11392;57.390;-2.468;2023-07-20T13:17:34;16.80;99.90
22450;DHT22;11392;57.390;-2.468;2023-07-20T13:20:03;16.80;99.90
22450;DHT22;11392;57.390;-2.468;2023-07-20T13:22:34;16.90;99.90
22450;DHT22;11392;57.390;-2.468;2023-07-20T13:25:02;17.10;99.90
22450;DHT22;11392;57.390;-2.468;2023-07-20T13:27:29;17.10;99.90
22450;DHT22;11392;57.390;-2.468;2023-07-20T13:29:59;17.30;99.90
22450;DHT22;11392;57.390;-2.468;2023-07-20T13:32:29;17.40;99.90
22450;DHT22;11392;57.390;-2.468;2023-07-20T13:35:00;17.30;99.90
22450;DHT22;11392;57.390;-2.468;2023-07-20T13:37:27;17.30;99.90
22450;DHT22;11392;57.390;-2.468;2023-07-20T13:39:55;17.60;99.90
22450;DHT22;11392;57.390;-2.468;2023-07-20T13:42:23;17.60;99.90
22450;DHT22;11392;57.390;-2.468;2023-07-20T13:44:51;17.80;99.90
22450;DHT22;11392;57.390;-2.468;2023-07-20T13:47:18;17.80;99.90
22450;DHT22;11392;57.390;-2.468;2023-07-20T13:49:47;17.70;99.90
22450;DHT22;11392;57.390;-2.468;2023-07-20T13:52:28;17.40;99.90
22450;DHT22;11392;57.390;-2.468;2023-07-20T13:54:58;17.10;99.90
22450;DHT22;11392;57.390;-2.468;2023-07-20T13:57:27;17.00;99.90
22450;DHT22;11392;57.390;-2.468;2023-07-20T13:59:54;17.10;99.90
22450;DHT22;11392;57.390;-2.468;2023-07-20T14:02:21;17.10;99.90
22450;DHT22;11392;57.390;-2.468;2023-07-20T14:04:51;17.10;99.90
22450;DHT22;11392;57.390;-2.468;2023-07-20T14:07:38;16.90;99.90
22450;DHT22;11392;57.390;-2.468;2023-07-20T14:10:07;16.80;99.90
22450;DHT22;11392;57.390;-2.468;2023-07-20T14:12:37;16.60;99.90
22450;DHT22;11392;57.390;-2.468;2023-07-20T14:15:04;16.30;99.90
22450;DHT22;11392;57.390;-2.468;2023-07-20T14:17:31;16.30;99.90
22450;DHT22;11392;57.390;-2.468;2023-07-20T14:19:58;16.40;99.90
22450;DHT22;11392;57.390;-2.468;2023-07-20T14:22:25;16.80;99.90
22450;DHT22;11392;57.390;-2.468;2023-07-20T14:24:53;17.00;99.90
22450;DHT22;11392;57.390;-2.468;2023-07-20T14:27:20;17.00;99.90
22450;DHT22;11392;57.390;-2.468;2023-07-20T14:29:47;17.30;99.90
22450;DHT22;11392;57.390;-2.468;2023-07-20T14:32:15;17.40;99.90
22450;DHT22;11392;57.390;-2.468;2023-07-20T14:34:42;17.40;99.90
22450;DHT22;11392;57.390;-2.468;2023-07-20T14:37:09;17.30;99.90
22450;DHT22;11392;57.390;-2.468;2023-07-20T14:39:36;17.30;99.90
22450;DHT22;11392;57.390;-2.468;2023-07-20T14:42:03;17.40;99.90
22450;DHT22;11392;57.390;-2.468;2023-07-20T14:44:32;17.30;99.90
22450;DHT22;11392;57.390;-2.468;2023-07-20T14:46:59;17.10;99.90
22450;DHT22;11392;57.390;-2.468;2023-07-20T14:49:40;17.00;99.90
22450;DHT22;11392;57.390;-2.468;2023-07-20T14:52:08;17.00;99.90
22450;DHT22;11392;57.390;-2.468;2023-07-20T14:54:37;16.90;99.90
22450;DHT22;11392;57.390;-2.468;2023-07-20T14:57:05;16.90;99.90
22450;DHT22;11392;57.390;-2.468;2023-07-20T14:59:34;16.80;99.90
22450;DHT22;11392;57.390;-2.468;2023-07-20T15:02:01;16.90;99.90
22450;DHT22;11392;57.390;-2.468;2023-07-20T15:04:28;16.70;99.90
22450;DHT22;11392;57.390;-2.468;2023-07-20T15:06:55;16.50;99.90
22450;DHT22;11392;57.390;-2.468;2023-07-20T15:09:23;16.50;99.90
22450;DHT22;11392;57.390;-2.468;2023-07-20T15:11:50;16.60;99.90
22450;DHT22;11392;57.390;-2.468;2023-07-20T15:14:16;16.50;99.90
22450;DHT22;11392;57.390;-2.468;2023-07-20T15:16:43;16.40;99.90
22450;DHT22;11392;57.390;-2.468;2023-07-20T15:19:14;16.30;99.90
22450;DHT22;11392;57.390;-2.468;2023-07-20T15:21:42;16.20;99.90
22450;DHT22;11392;57.390;-2.468;2023-07-20T15:24:09;16.10;99.90
22450;DHT22;11392;57.390;-2.468;2023-07-20T15:26:36;16.20;99.90
22450;DHT22;11392;57.390;-2.468;2023-07-20T15:29:03;16.20;99.90
22450;DHT22;11392;57.390;-2.468;2023-07-20T15:31:30;16.30;99.90
22450;DHT22;11392;57.390;-2.468;2023-07-20T15:34:00;16.30;99.90
22450;DHT22;11392;57.390;-2.468;2023-07-20T15:36:27;16.30;99.90
22450;DHT22;11392;57.390;-2.468;2023-07-20T15:38:54;16.30;99.90
22450;DHT22;11392;57.390;-2.468;2023-07-20T15:41:21;16.30;99.90
22450;DHT22;11392;57.390;-2.468;2023-07-20T15:43:50;16.40;99.90
22450;DHT22;11392;57.390;-2.468;2023-07-20T15:48:47;16.40;99.90